Liberty — WDF9328 — position and weather

sailwx.info

Track history (hours):
 
Tides and Currents Weather Stations Pressure Air Temp Water Temp Dewpoint Dewpoint Depression Visibility Wind Speed Wind Dir Waves Ship Positions

Liberty

Owner: Den Besten, Ronald W, Bonita Springs, FL. More information available from US FCC via Universal Licensing System and Coast Guard Vessel Documentation Center.

Last reported at 2017-Oct-07 20:45 UTC. Time now 2017-Oct-17 15:28 UTC.
Position N 42°16' W 070°55'.
Warning: this ship's position is 9 days out of date.

Length 14 m.

Type: Pleasure craft. MMSI: 369288000.

Date/timePositionNaut miles runAvg speedWind from/ knotsBaromVisibWave heightAir tempDewpointWater temp
2017-Oct-07 20:45N 42°16' W 070°55'313.2
2017-Oct-07 20:30N 42°18' W 070°58'3 5.0
2017-Oct-07 19:58N 42°20' W 071°00'1 2.8
2017-Oct-07 19:30N 42°20' W 070°58'0 0.6
2017-Oct-07 19:00N 42°20' W 070°59'3 2.9
2017-Oct-07 17:48N 42°21' W 071°03'1 2.3
2017-Oct-07 17:29N 42°22' W 071°02'1 1.2
2017-Oct-07 16:59N 42°21' W 071°02'  
2017-Oct-01 19:29N 42°16' W 070°55'3 0.1
2017-Sep-29 16:26N 42°18' W 070°52'  
Track history (hours):
 
Tides and Currents Weather Stations Pressure Air Temp Water Temp Dewpoint Dewpoint Depression Visibility Wind Speed Wind Dir Waves Ship Positions

Liberty

Owner: Den Besten, Ronald W, Bonita Springs, FL. More information available from US FCC via Universal Licensing System and Coast Guard Vessel Documentation Center.

Last reported at 2017-Oct-07 20:45 UTC. Time now 2017-Oct-17 15:28 UTC.
Position N 42°16' W 070°55'.
Warning: this ship's position is 9 days out of date.

Length 14 m.

Type: Pleasure craft. MMSI: 369288000.

Date/timePositionNaut miles runAvg speedWind from/ knotsBaromVisibWave heightAir tempDewpointWater temp
2017-Oct-07 20:45N 42°16' W 070°55'313.2
2017-Oct-07 20:30N 42°18' W 070°58'3 5.0
2017-Oct-07 19:58N 42°20' W 071°00'1 2.8
2017-Oct-07 19:30N 42°20' W 070°58'0 0.6
2017-Oct-07 19:00N 42°20' W 070°59'3 2.9
2017-Oct-07 17:48N 42°21' W 071°03'1 2.3
2017-Oct-07 17:29N 42°22' W 071°02'1 1.2
2017-Oct-07 16:59N 42°21' W 071°02'  
2017-Oct-01 19:29N 42°16' W 070°55'3 0.1
2017-Sep-29 16:26N 42°18' W 070°52'  

Dump ship's entire track history